createdAt,value
2018-01-19T00:00:50.338Z,997.6
2018-01-19T00:01:52.040Z,997.6
2018-01-19T00:02:55.188Z,997.7
2018-01-19T00:03:56.896Z,997.7
2018-01-19T00:04:58.944Z,997.7
2018-01-19T00:06:00.667Z,997.7
2018-01-19T00:07:02.395Z,997.7
2018-01-19T00:08:04.320Z,997.7
2018-01-19T00:09:06.451Z,997.8
2018-01-19T00:10:08.214Z,997.8
2018-01-19T00:11:09.930Z,997.8
2018-01-19T00:12:12.032Z,997.8
2018-01-19T00:13:14.821Z,997.9
2018-01-19T00:14:16.931Z,997.8
2018-01-19T00:15:19.024Z,997.8
2018-01-19T00:16:20.959Z,997.8
2018-01-19T00:17:22.681Z,997.8
2018-01-19T00:18:24.398Z,997.8
2018-01-19T00:19:26.475Z,997.8
2018-01-19T00:20:28.364Z,997.9
2018-01-19T00:21:30.043Z,997.9
2018-01-19T00:22:31.767Z,997.9
2018-01-19T00:23:33.575Z,998.0
2018-01-19T00:24:35.249Z,998.0
2018-01-19T00:25:37.025Z,997.9
2018-01-19T00:26:38.809Z,997.9
2018-01-19T00:27:40.504Z,997.9
2018-01-19T00:28:42.565Z,997.9
2018-01-19T00:29:44.589Z,998.0
2018-01-19T00:30:46.255Z,998.0
2018-01-19T00:31:47.989Z,997.9
2018-01-19T00:32:49.670Z,997.9
2018-01-19T00:33:51.494Z,997.9
2018-01-19T00:34:53.501Z,997.9
2018-01-19T00:35:56.288Z,997.9
2018-01-19T00:36:58.016Z,997.9
2018-01-19T00:37:59.701Z,997.9
2018-01-19T00:39:01.474Z,997.9
2018-01-19T00:40:03.298Z,997.9
2018-01-19T00:41:05.188Z,997.9
2018-01-19T00:42:06.874Z,998.0
2018-01-19T00:43:08.667Z,998.0
2018-01-19T00:44:10.379Z,997.9
2018-01-19T00:45:12.087Z,998.0
2018-01-19T00:46:13.883Z,997.9
2018-01-19T00:47:15.932Z,998.0
2018-01-19T00:48:17.596Z,997.9
2018-01-19T00:49:19.598Z,998.0
2018-01-19T00:50:21.476Z,998.0
2018-01-19T00:51:23.589Z,998.0
2018-01-19T00:52:25.452Z,998.0
2018-01-19T00:53:27.386Z,998.0
2018-01-19T00:54:29.093Z,998.0
2018-01-19T00:55:31.126Z,998.0
2018-01-19T00:56:33.194Z,998.1
2018-01-19T00:57:35.000Z,998.0
2018-01-19T00:58:36.707Z,998.1
2018-01-19T00:59:38.398Z,998.1
2018-01-19T01:00:40.093Z,998.1
2018-01-19T01:01:41.808Z,998.2
2018-01-19T01:02:43.645Z,998.1
2018-01-19T01:03:45.419Z,998.1
2018-01-19T01:04:47.188Z,998.2
2018-01-19T01:05:49.094Z,998.1
2018-01-19T01:06:51.269Z,998.2
2018-01-19T01:07:53.337Z,998.2
2018-01-19T01:08:55.430Z,998.2
2018-01-19T01:09:57.152Z,998.2
2018-01-19T01:10:58.892Z,998.2
2018-01-19T01:12:00.990Z,998.2
2018-01-19T01:13:03.057Z,998.2
2018-01-19T01:14:04.899Z,998.2
2018-01-19T01:15:06.995Z,998.2
2018-01-19T01:16:09.133Z,998.2
2018-01-19T01:17:11.282Z,998.2
2018-01-19T01:18:13.354Z,998.3
2018-01-19T01:19:15.328Z,998.3
2018-01-19T01:20:17.211Z,998.3
2018-01-19T01:21:19.310Z,998.3
2018-01-19T01:22:21.390Z,998.3
2018-01-19T01:23:23.613Z,998.3
2018-01-19T01:24:25.402Z,998.3
2018-01-19T01:25:27.102Z,998.3
2018-01-19T01:26:29.064Z,998.3
2018-01-19T01:27:30.862Z,998.3
2018-01-19T01:28:32.809Z,998.2
2018-01-19T01:29:34.592Z,998.2
2018-01-19T01:30:36.333Z,998.3
2018-01-19T01:31:38.212Z,998.3
2018-01-19T01:32:39.934Z,998.3
2018-01-19T01:33:42.009Z,998.3
2018-01-19T01:34:44.108Z,998.3
2018-01-19T01:35:46.055Z,998.3
2018-01-19T01:36:47.796Z,998.3
2018-01-19T01:37:49.712Z,998.3
2018-01-19T01:38:51.479Z,998.3
2018-01-19T01:39:53.181Z,998.3
2018-01-19T01:40:55.367Z,998.3
2018-01-19T01:41:57.361Z,998.3
2018-01-19T01:42:59.070Z,998.4
2018-01-19T01:44:01.088Z,998.4
2018-01-19T01:45:02.911Z,998.3
2018-01-19T01:46:04.716Z,998.4
2018-01-19T01:47:06.432Z,998.3
2018-01-19T01:48:08.899Z,998.4
2018-01-19T01:49:10.898Z,998.3
2018-01-19T01:50:13.032Z,998.3
2018-01-19T01:51:15.079Z,998.3
2018-01-19T01:52:16.849Z,998.3
2018-01-19T01:53:18.896Z,998.3
2018-01-19T01:54:20.676Z,998.4
2018-01-19T01:55:22.428Z,998.4
2018-01-19T01:56:24.534Z,998.3
2018-01-19T01:57:26.265Z,998.3
2018-01-19T01:58:28.830Z,998.3
2018-01-19T01:59:30.633Z,998.3
2018-01-19T02:00:32.454Z,998.3
2018-01-19T02:01:34.598Z,998.3
2018-01-19T02:02:36.770Z,998.4
2018-01-19T02:03:38.839Z,998.4
2018-01-19T02:04:40.773Z,998.3
2018-01-19T02:05:42.534Z,998.4
2018-01-19T02:06:44.703Z,998.4
2018-01-19T02:07:46.769Z,998.4
2018-01-19T02:08:48.840Z,998.4
2018-01-19T02:09:50.586Z,998.4
2018-01-19T02:10:52.521Z,998.4
2018-01-19T02:11:54.251Z,998.4
2018-01-19T02:12:55.944Z,998.4
2018-01-19T02:13:57.645Z,998.5
2018-01-19T02:14:59.340Z,998.5
2018-01-19T02:16:01.335Z,998.6
2018-01-19T02:17:03.108Z,998.6
2018-01-19T02:18:04.852Z,998.6
2018-01-19T02:19:06.580Z,998.6
2018-01-19T02:20:08.295Z,998.6
2018-01-19T02:21:09.976Z,998.6
2018-01-19T02:22:11.826Z,998.6
2018-01-19T02:23:13.557Z,998.6
2018-01-19T02:24:15.219Z,998.6
2018-01-19T02:25:16.910Z,998.6
2018-01-19T02:26:18.645Z,998.5
2018-01-19T02:27:20.325Z,998.5
2018-01-19T02:28:22.030Z,998.6
2018-01-19T02:29:23.736Z,998.6
2018-01-19T02:30:25.408Z,998.6
2018-01-19T02:31:27.058Z,998.5
2018-01-19T02:32:28.862Z,998.6
2018-01-19T02:33:30.712Z,998.6
2018-01-19T02:34:32.630Z,998.6
2018-01-19T02:35:34.614Z,998.6
2018-01-19T02:36:36.549Z,998.6
2018-01-19T02:37:39.476Z,998.6
2018-01-19T02:38:41.257Z,998.6
2018-01-19T02:39:43.223Z,998.7
2018-01-19T02:40:45.048Z,998.6
2018-01-19T02:41:46.960Z,998.6
2018-01-19T02:42:48.668Z,998.7
2018-01-19T02:43:50.414Z,998.7
2018-01-19T02:44:52.125Z,998.7
2018-01-19T02:45:53.836Z,998.7
2018-01-19T02:46:55.662Z,998.7
2018-01-19T02:47:57.467Z,998.7
2018-01-19T02:48:59.148Z,998.7
2018-01-19T02:50:00.849Z,998.7
2018-01-19T02:51:02.679Z,998.7
2018-01-19T02:52:04.627Z,998.7
2018-01-19T02:53:06.428Z,998.7
2018-01-19T02:54:08.192Z,998.7
2018-01-19T02:55:10.142Z,998.7
2018-01-19T02:56:11.860Z,998.7
2018-01-19T02:57:13.680Z,998.7
2018-01-19T02:58:15.349Z,998.7
2018-01-19T02:59:17.058Z,998.8
2018-01-19T03:00:19.032Z,998.8
2018-01-19T03:01:20.770Z,998.8
2018-01-19T03:02:22.452Z,998.8
2018-01-19T03:03:24.326Z,998.8
2018-01-19T03:04:26.166Z,998.8
2018-01-19T03:05:27.890Z,998.8
2018-01-19T03:06:29.756Z,998.8
2018-01-19T03:07:31.510Z,998.8
2018-01-19T03:08:33.289Z,998.8
2018-01-19T03:09:35.246Z,998.8
2018-01-19T03:10:37.212Z,998.8
2018-01-19T03:11:39.153Z,998.8
2018-01-19T03:12:41.027Z,998.8
2018-01-19T03:13:42.718Z,998.8
2018-01-19T03:14:44.424Z,998.9
2018-01-19T03:15:46.160Z,998.9
2018-01-19T03:16:47.858Z,998.8
2018-01-19T03:17:49.562Z,998.8
2018-01-19T03:18:51.298Z,998.9
2018-01-19T03:19:52.957Z,998.9
2018-01-19T03:20:54.761Z,998.9
2018-01-19T03:21:56.464Z,998.9
2018-01-19T03:22:58.173Z,999.0
2018-01-19T03:23:59.854Z,999.0
2018-01-19T03:25:01.566Z,999.1
2018-01-19T03:26:03.192Z,999.0
2018-01-19T03:27:04.844Z,999.0
2018-01-19T03:28:06.521Z,999.0
2018-01-19T03:29:08.144Z,999.0
2018-01-19T03:30:09.816Z,999.1
2018-01-19T03:31:11.641Z,999.0
2018-01-19T03:32:13.278Z,999.0
2018-01-19T03:33:15.212Z,999.0
2018-01-19T03:34:17.042Z,999.0
2018-01-19T03:35:19.170Z,999.0
2018-01-19T03:36:20.790Z,999.0
2018-01-19T03:37:22.840Z,999.0
2018-01-19T03:38:24.514Z,999.0
2018-01-19T03:39:26.338Z,999.0
2018-01-19T03:40:28.058Z,999.0
2018-01-19T03:41:29.758Z,999.1
2018-01-19T03:42:31.432Z,999.1
2018-01-19T03:43:33.100Z,999.0
2018-01-19T03:44:34.791Z,999.1
2018-01-19T03:45:36.476Z,999.1
2018-01-19T03:46:38.614Z,999.0
2018-01-19T03:47:40.298Z,999.1
2018-01-19T03:48:42.157Z,999.1
2018-01-19T03:49:43.965Z,999.1
2018-01-19T03:50:45.953Z,999.1
2018-01-19T03:51:48.148Z,999.1
2018-01-19T03:52:49.874Z,999.1
2018-01-19T03:53:51.996Z,999.2
2018-01-19T03:54:54.093Z,999.1
2018-01-19T03:55:56.845Z,999.2
2018-01-19T03:56:58.916Z,999.1
2018-01-19T03:58:00.615Z,999.2
2018-01-19T03:59:02.332Z,999.2
2018-01-19T04:00:04.483Z,999.2
2018-01-19T04:01:06.628Z,999.2
2018-01-19T04:02:08.331Z,999.1
2018-01-19T04:03:10.460Z,999.2
2018-01-19T04:04:12.215Z,999.2
2018-01-19T04:05:13.902Z,999.2
2018-01-19T04:06:15.595Z,999.2
2018-01-19T04:07:17.791Z,999.2
2018-01-19T04:08:19.522Z,999.2
2018-01-19T04:09:21.513Z,999.2
2018-01-19T04:10:23.470Z,999.2
2018-01-19T04:11:25.649Z,999.2
2018-01-19T04:12:27.731Z,999.3
2018-01-19T04:13:29.750Z,999.3
2018-01-19T04:14:31.578Z,999.3
2018-01-19T04:15:33.333Z,999.3
2018-01-19T04:16:35.119Z,999.4
2018-01-19T04:17:37.210Z,999.4
2018-01-19T04:18:39.159Z,999.4
2018-01-19T04:19:41.345Z,999.4
2018-01-19T04:20:43.505Z,999.5
2018-01-19T04:21:45.594Z,999.5
2018-01-19T04:22:47.348Z,999.5
2018-01-19T04:23:49.464Z,999.5
2018-01-19T04:24:51.249Z,999.5
2018-01-19T04:25:53.443Z,999.5
2018-01-19T04:26:55.239Z,999.5
2018-01-19T04:27:57.292Z,999.5
2018-01-19T04:28:59.314Z,999.5
2018-01-19T04:30:01.395Z,999.5
2018-01-19T04:31:03.602Z,999.5
2018-01-19T04:32:05.605Z,999.5
2018-01-19T04:33:07.792Z,999.5
2018-01-19T04:34:09.818Z,999.6
2018-01-19T04:35:11.931Z,999.6
2018-01-19T04:36:13.662Z,999.6
2018-01-19T04:37:15.736Z,999.6
2018-01-19T04:38:17.783Z,999.6
2018-01-19T04:39:19.816Z,999.5
2018-01-19T04:40:21.907Z,999.6
2018-01-19T04:41:23.814Z,999.7
2018-01-19T04:42:25.803Z,999.6
2018-01-19T04:43:27.526Z,999.6
2018-01-19T04:44:29.443Z,999.6
2018-01-19T04:45:31.129Z,999.7
2018-01-19T04:46:32.861Z,999.7
2018-01-19T04:47:34.656Z,999.7
2018-01-19T04:48:36.846Z,999.7
2018-01-19T04:49:39.077Z,999.7
2018-01-19T04:50:41.221Z,999.7
2018-01-19T04:51:43.353Z,999.7
2018-01-19T04:52:45.304Z,999.7
2018-01-19T04:53:47.439Z,999.8
2018-01-19T04:54:49.581Z,999.8
2018-01-19T04:55:51.806Z,999.8
2018-01-19T04:56:53.755Z,999.8
2018-01-19T04:57:55.763Z,999.8
2018-01-19T04:58:57.942Z,999.8
2018-01-19T04:59:59.630Z,999.9
2018-01-19T05:01:01.353Z,999.8
2018-01-19T05:02:03.520Z,999.8
2018-01-19T05:03:05.700Z,999.9
2018-01-19T05:04:07.835Z,999.8
2018-01-19T05:05:09.518Z,999.8
2018-01-19T05:06:11.656Z,999.9
2018-01-19T05:07:13.303Z,999.9
2018-01-19T05:08:15.166Z,999.9
2018-01-19T05:09:16.853Z,999.9
2018-01-19T05:10:18.808Z,999.9
2018-01-19T05:11:20.908Z,999.9
2018-01-19T05:12:22.699Z,999.9
2018-01-19T05:13:24.587Z,1000.0
2018-01-19T05:14:26.760Z,999.9
2018-01-19T05:15:28.873Z,1000.0
2018-01-19T05:16:31.050Z,1000.0
2018-01-19T05:17:33.138Z,1000.0
2018-01-19T05:18:34.854Z,1000.0
2018-01-19T05:19:37.015Z,1000.0
2018-01-19T05:20:38.727Z,1000.0
2018-01-19T05:21:40.734Z,1000.1
2018-01-19T05:22:42.794Z,1000.0
2018-01-19T05:23:44.477Z,1000.1
2018-01-19T05:24:46.147Z,1000.1
2018-01-19T05:25:47.816Z,1000.1
2018-01-19T05:26:49.470Z,1000.2
2018-01-19T05:27:51.119Z,1000.2
2018-01-19T05:28:52.757Z,1000.2
2018-01-19T05:29:54.469Z,1000.1
2018-01-19T05:30:56.123Z,1000.2
2018-01-19T05:31:57.760Z,1000.1
2018-01-19T05:32:59.408Z,1000.2
2018-01-19T05:34:01.061Z,1000.2
2018-01-19T05:35:02.764Z,1000.2
2018-01-19T05:36:04.838Z,1000.1
2018-01-19T05:37:06.731Z,1000.2
2018-01-19T05:38:08.368Z,1000.1
2018-01-19T05:39:10.426Z,1000.1
2018-01-19T05:40:12.536Z,1000.2
2018-01-19T05:41:14.386Z,1000.2
2018-01-19T05:42:17.475Z,1000.2
2018-01-19T05:43:19.495Z,1000.2
2018-01-19T05:44:21.858Z,1000.2
2018-01-19T05:45:23.897Z,1000.2
2018-01-19T05:46:25.509Z,1000.3
2018-01-19T05:47:27.144Z,1000.2
2018-01-19T05:48:28.855Z,1000.2
2018-01-19T05:49:30.568Z,1000.3
2018-01-19T05:50:32.262Z,1000.3
2018-01-19T05:51:33.889Z,1000.3
2018-01-19T05:52:36.197Z,1000.3
2018-01-19T05:53:38.098Z,1000.3
2018-01-19T05:54:39.754Z,1000.3
2018-01-19T05:55:41.437Z,1000.3
2018-01-19T05:56:43.102Z,1000.3
2018-01-19T05:57:44.788Z,1000.4
2018-01-19T05:58:46.480Z,1000.4
2018-01-19T05:59:48.125Z,1000.4
2018-01-19T06:00:49.799Z,1000.4
2018-01-19T06:01:51.419Z,1000.4
2018-01-19T06:02:53.076Z,1000.5
2018-01-19T06:03:54.776Z,1000.5
2018-01-19T06:04:56.397Z,1000.6
2018-01-19T06:05:58.014Z,1000.6
2018-01-19T06:07:00.051Z,1000.5
2018-01-19T06:08:02.007Z,1000.6
2018-01-19T06:09:03.644Z,1000.6
2018-01-19T06:10:05.283Z,1000.6
2018-01-19T06:11:07.196Z,1000.6
2018-01-19T06:12:08.834Z,1000.7
2018-01-19T06:13:10.474Z,1000.7
2018-01-19T06:14:12.087Z,1000.7
2018-01-19T06:15:13.731Z,1000.7
2018-01-19T06:16:15.345Z,1000.7
2018-01-19T06:17:17.003Z,1000.8
2018-01-19T06:18:18.659Z,1000.8
2018-01-19T06:19:20.314Z,1000.8
2018-01-19T06:20:21.951Z,1000.8
2018-01-19T06:21:23.614Z,1000.7
2018-01-19T06:22:25.221Z,1000.7
2018-01-19T06:23:26.888Z,1000.8
2018-01-19T06:24:28.532Z,1000.8
2018-01-19T06:25:30.148Z,1000.8
2018-01-19T06:26:31.763Z,1000.8
2018-01-19T06:27:33.410Z,1000.8
2018-01-19T06:28:35.123Z,1000.8
2018-01-19T06:29:36.757Z,1000.8
2018-01-19T06:30:38.668Z,1000.9
2018-01-19T06:31:40.399Z,1000.9
2018-01-19T06:32:42.044Z,1000.9
2018-01-19T06:33:43.759Z,1000.9
2018-01-19T06:34:45.529Z,1000.9
2018-01-19T06:35:47.393Z,1000.9
2018-01-19T06:36:49.137Z,1000.9
2018-01-19T06:37:51.235Z,1001.0
2018-01-19T06:38:53.089Z,1001.0
2018-01-19T06:39:55.464Z,1001.1
2018-01-19T06:40:58.048Z,1001.1
2018-01-19T06:42:00.237Z,1001.1
2018-01-19T06:43:02.251Z,1001.1
2018-01-19T06:44:04.161Z,1001.2
2018-01-19T06:45:06.102Z,1001.1
2018-01-19T06:46:08.045Z,1001.2
2018-01-19T06:47:09.743Z,1001.3
2018-01-19T06:48:11.469Z,1001.3
2018-01-19T06:49:13.192Z,1001.2
2018-01-19T06:50:14.815Z,1001.3
2018-01-19T06:51:16.434Z,1001.3
2018-01-19T06:52:18.053Z,1001.3
2018-01-19T06:53:19.794Z,1001.3
2018-01-19T06:54:21.476Z,1001.3
2018-01-19T06:55:23.176Z,1001.3
2018-01-19T06:56:24.792Z,1001.4
2018-01-19T06:57:26.591Z,1001.3
2018-01-19T06:58:28.301Z,1001.4
2018-01-19T06:59:29.948Z,1001.4
2018-01-19T07:00:31.581Z,1001.4
2018-01-19T07:01:33.263Z,1001.4
2018-01-19T07:02:34.880Z,1001.4
2018-01-19T07:03:36.511Z,1001.5
2018-01-19T07:04:38.181Z,1001.5
2018-01-19T07:05:39.858Z,1001.6
2018-01-19T07:06:41.669Z,1001.5
2018-01-19T07:07:43.373Z,1001.5
2018-01-19T07:08:45.156Z,1001.5
2018-01-19T07:09:46.891Z,1001.5
2018-01-19T07:10:48.607Z,1001.5
2018-01-19T07:11:50.328Z,1001.6
2018-01-19T07:12:52.037Z,1001.6
2018-01-19T07:13:53.862Z,1001.6
2018-01-19T07:14:55.518Z,1001.7
2018-01-19T07:15:57.220Z,1001.7
2018-01-19T07:16:58.908Z,1001.7
2018-01-19T07:18:00.588Z,1001.7
2018-01-19T07:19:02.213Z,1001.7
2018-01-19T07:20:04.032Z,1001.8
2018-01-19T07:21:05.847Z,1001.7
2018-01-19T07:22:07.483Z,1001.8
2018-01-19T07:23:09.163Z,1001.8
2018-01-19T07:24:10.780Z,1001.8
2018-01-19T07:25:12.461Z,1001.9
2018-01-19T07:26:14.107Z,1001.9
2018-01-19T07:27:15.757Z,1001.9
2018-01-19T07:28:17.452Z,1002.0
2018-01-19T07:29:19.100Z,1002.0
2018-01-19T07:30:20.834Z,1002.0
2018-01-19T07:31:22.510Z,1002.1
2018-01-19T07:32:24.198Z,1002.1
2018-01-19T07:33:26.150Z,1002.1
2018-01-19T07:34:28.089Z,1002.1
2018-01-19T07:35:29.738Z,1002.1
2018-01-19T07:36:31.580Z,1002.1
2018-01-19T07:37:33.246Z,1002.1
2018-01-19T07:38:35.129Z,1002.2
2018-01-19T07:39:36.871Z,1002.2
2018-01-19T07:40:38.552Z,1002.2
2018-01-19T07:41:40.233Z,1002.2
2018-01-19T07:42:41.941Z,1002.2
2018-01-19T07:43:43.659Z,1002.2
2018-01-19T07:44:45.528Z,1002.2
2018-01-19T07:45:47.275Z,1002.3
2018-01-19T07:46:48.992Z,1002.3
2018-01-19T07:47:50.792Z,1002.3
2018-01-19T07:48:52.506Z,1002.3
2018-01-19T07:49:54.253Z,1002.4
2018-01-19T07:50:55.906Z,1002.4
2018-01-19T07:51:57.622Z,1002.4
2018-01-19T07:52:59.563Z,1002.4
2018-01-19T07:54:01.232Z,1002.4
2018-01-19T07:55:03.458Z,1002.5
2018-01-19T07:56:05.122Z,1002.5
2018-01-19T07:57:06.789Z,1002.5
2018-01-19T07:58:08.450Z,1002.5
2018-01-19T07:59:10.363Z,1002.5
2018-01-19T08:00:11.989Z,1002.5
2018-01-19T08:01:13.634Z,1002.6
2018-01-19T08:02:15.314Z,1002.6
2018-01-19T08:03:17.162Z,1002.6
2018-01-19T08:04:18.964Z,1002.6
2018-01-19T08:05:21.968Z,1002.6
2018-01-19T08:06:24.975Z,1002.7
2018-01-19T08:07:26.656Z,1002.6
2018-01-19T08:08:28.367Z,1002.7
2018-01-19T08:09:29.981Z,1002.7
2018-01-19T08:10:31.687Z,1002.7
2018-01-19T08:11:33.512Z,1002.7
2018-01-19T08:12:35.205Z,1002.8
2018-01-19T08:13:36.877Z,1002.8
2018-01-19T08:14:38.491Z,1002.7
2018-01-19T08:15:40.112Z,1002.8
2018-01-19T08:16:41.752Z,1002.8
2018-01-19T08:17:43.459Z,1002.9
2018-01-19T08:18:45.124Z,1002.9
2018-01-19T08:19:46.814Z,1002.9
2018-01-19T08:20:48.439Z,1002.9
2018-01-19T08:21:50.113Z,1002.9
2018-01-19T08:22:52.016Z,1003.0
2018-01-19T08:23:53.784Z,1003.0
2018-01-19T08:24:55.557Z,1003.0
2018-01-19T08:25:57.240Z,1003.0
2018-01-19T08:26:59.071Z,1003.0
2018-01-19T08:28:01.364Z,1003.0
2018-01-19T08:29:03.613Z,1003.0
2018-01-19T08:30:05.259Z,1003.0
2018-01-19T08:31:06.884Z,1003.0
2018-01-19T08:32:08.524Z,1003.1
2018-01-19T08:33:10.587Z,1003.1
2018-01-19T08:34:12.136Z,1003.1
2018-01-19T08:35:15.062Z,1003.0
2018-01-19T08:36:17.152Z,1003.1
2018-01-19T08:37:19.054Z,1003.1
2018-01-19T08:38:20.848Z,1003.1
2018-01-19T08:39:22.462Z,1003.1
2018-01-19T08:40:24.090Z,1003.1
2018-01-19T08:41:26.073Z,1003.1
2018-01-19T08:42:27.708Z,1003.1
2018-01-19T08:43:29.375Z,1003.2
2018-01-19T08:44:30.994Z,1003.2
2018-01-19T08:45:32.732Z,1003.2
2018-01-19T08:46:34.480Z,1003.3
2018-01-19T08:47:36.097Z,1003.3
2018-01-19T08:48:37.713Z,1003.4
2018-01-19T08:49:39.410Z,1003.3
2018-01-19T08:50:41.178Z,1003.3
2018-01-19T08:51:43.116Z,1003.3
2018-01-19T08:52:44.822Z,1003.3
2018-01-19T08:53:46.500Z,1003.3
2018-01-19T08:54:48.423Z,1003.3
2018-01-19T08:55:50.099Z,1003.4
2018-01-19T08:56:52.058Z,1003.3
2018-01-19T08:57:54.191Z,1003.3
2018-01-19T08:58:56.398Z,1003.3
2018-01-19T08:59:58.532Z,1003.3
2018-01-19T09:01:00.531Z,1003.4
2018-01-19T09:02:02.583Z,1003.4
2018-01-19T09:03:04.232Z,1003.5
2018-01-19T09:04:05.986Z,1003.6
2018-01-19T09:05:07.876Z,1003.4
2018-01-19T09:06:09.791Z,1003.5
2018-01-19T09:07:11.438Z,1003.5
2018-01-19T09:08:13.128Z,1003.5
2018-01-19T09:09:14.757Z,1003.6
2018-01-19T09:10:16.729Z,1003.6
2018-01-19T09:11:18.409Z,1003.7
2018-01-19T09:12:20.360Z,1003.8
2018-01-19T09:13:22.111Z,1003.8
2018-01-19T09:14:24.096Z,1003.7
2018-01-19T09:15:26.696Z,1003.8
2018-01-19T09:16:28.423Z,1003.7
2018-01-19T09:17:30.055Z,1003.8
2018-01-19T09:18:31.775Z,1003.7
2018-01-19T09:19:33.830Z,1003.7
2018-01-19T09:20:35.739Z,1003.7
2018-01-19T09:21:37.418Z,1003.7
2018-01-19T09:22:39.211Z,1003.7
2018-01-19T09:23:40.841Z,1003.7
2018-01-19T09:24:42.610Z,1003.7
2018-01-19T09:25:44.805Z,1003.7
2018-01-19T09:26:46.879Z,1003.7
2018-01-19T09:27:54.656Z,1003.7
2018-01-19T09:28:56.189Z,1003.8
2018-01-19T09:29:57.919Z,1003.8
2018-01-19T09:30:59.613Z,1003.8
2018-01-19T09:32:01.701Z,1003.8
2018-01-19T09:33:03.914Z,1003.8
2018-01-19T09:34:06.081Z,1003.7
2018-01-19T09:35:08.124Z,1003.7
2018-01-19T09:36:10.407Z,1003.7
2018-01-19T09:37:12.104Z,1003.7
2018-01-19T09:38:13.775Z,1003.7
2018-01-19T09:39:15.500Z,1003.8
2018-01-19T09:40:17.217Z,1003.7
2018-01-19T09:41:18.874Z,1003.8
2018-01-19T09:42:20.597Z,1003.8
2018-01-19T09:43:22.324Z,1003.9
2018-01-19T09:44:24.061Z,1004.0
2018-01-19T09:45:25.901Z,1004.0
2018-01-19T09:46:27.561Z,1003.9
2018-01-19T09:47:29.607Z,1004.0
2018-01-19T09:48:31.322Z,1003.9
2018-01-19T09:49:33.083Z,1004.0
2018-01-19T09:50:34.774Z,1003.9
2018-01-19T09:51:36.397Z,1003.9
2018-01-19T09:52:38.059Z,1004.0
2018-01-19T09:53:39.787Z,1004.1
2018-01-19T09:54:41.948Z,1004.0
2018-01-19T09:55:43.623Z,1003.9
2018-01-19T09:56:45.345Z,1003.9
2018-01-19T09:57:47.149Z,1003.9
2018-01-19T09:58:49.184Z,1004.1
2018-01-19T09:59:50.886Z,1004.1
2018-01-19T10:00:52.895Z,1004.0
2018-01-19T10:01:54.778Z,1004.1
2018-01-19T10:02:56.849Z,1004.2
2018-01-19T10:03:58.539Z,1004.5
2018-01-19T10:05:00.170Z,1004.2
2018-01-19T10:06:01.856Z,1004.3
2018-01-19T10:07:03.506Z,1004.3
2018-01-19T10:08:05.273Z,1004.2
2018-01-19T10:09:07.009Z,1004.2
2018-01-19T10:10:08.725Z,1004.3
2018-01-19T10:11:10.714Z,1004.4
2018-01-19T10:12:12.474Z,1004.4
2018-01-19T10:13:14.474Z,1004.2
2018-01-19T10:14:16.469Z,1004.4
2018-01-19T10:15:18.553Z,1004.7
2018-01-19T10:16:20.505Z,1004.5
2018-01-19T10:17:22.584Z,1004.4
2018-01-19T10:18:24.602Z,1004.5
2018-01-19T10:19:26.681Z,1004.6
2018-01-19T10:20:28.737Z,1004.5
2018-01-19T10:21:30.726Z,1004.5
2018-01-19T10:22:32.849Z,1004.4
2018-01-19T10:23:34.986Z,1004.4
2018-01-19T10:24:36.730Z,1004.5
2018-01-19T10:25:38.818Z,1004.5
2018-01-19T10:26:41.009Z,1004.4
2018-01-19T10:27:43.112Z,1004.5
2018-01-19T10:28:44.857Z,1004.4
2018-01-19T10:29:46.867Z,1004.4
2018-01-19T10:30:48.889Z,1004.4
2018-01-19T10:31:50.894Z,1004.4
2018-01-19T10:32:52.906Z,1004.5
2018-01-19T10:33:55.003Z,1004.5
2018-01-19T10:34:57.069Z,1004.5
2018-01-19T10:35:59.153Z,1004.6
2018-01-19T10:37:01.181Z,1004.6
2018-01-19T10:38:03.312Z,1004.8
2018-01-19T10:39:05.238Z,1004.6
2018-01-19T10:40:07.305Z,1004.8
2018-01-19T10:41:09.361Z,1004.8
2018-01-19T10:42:11.137Z,1004.7
2018-01-19T10:43:12.792Z,1004.8
2018-01-19T10:44:14.520Z,1004.9
2018-01-19T10:45:16.241Z,1004.9
2018-01-19T10:46:18.006Z,1004.7
2018-01-19T10:47:20.155Z,1004.7
2018-01-19T10:48:22.264Z,1004.8
2018-01-19T10:49:23.927Z,1005.0
2018-01-19T10:50:25.744Z,1005.1
2018-01-19T10:51:27.842Z,1005.2
2018-01-19T10:52:29.532Z,1005.3
2018-01-19T10:53:31.256Z,1006.3
2018-01-19T10:54:33.038Z,1005.3
2018-01-19T10:55:34.765Z,1005.2
2018-01-19T10:56:36.404Z,1005.2
2018-01-19T10:57:38.469Z,1005.4
2018-01-19T10:58:40.561Z,1005.2
2018-01-19T10:59:42.506Z,1004.9
2018-01-19T11:00:44.768Z,1004.7
2018-01-19T11:01:46.917Z,1004.7
2018-01-19T11:02:49.472Z,1004.7
2018-01-19T11:03:51.405Z,1004.7
2018-01-19T11:04:53.708Z,1004.7
2018-01-19T11:05:55.813Z,1004.5
2018-01-19T11:06:57.573Z,1004.5
2018-01-19T11:07:59.248Z,1004.4
2018-01-19T11:09:00.941Z,1004.5
2018-01-19T11:10:02.639Z,1004.5
2018-01-19T11:11:04.424Z,1004.6
2018-01-19T11:12:06.212Z,1004.5
2018-01-19T11:13:08.105Z,1004.7
2018-01-19T11:14:09.818Z,1004.5
2018-01-19T11:15:11.503Z,1004.7
2018-01-19T11:16:13.557Z,1004.7
2018-01-19T11:17:15.248Z,1005.0
2018-01-19T11:18:17.227Z,1005.0
2018-01-19T11:19:19.214Z,1004.7
2018-01-19T11:20:20.942Z,1004.6
2018-01-19T11:21:22.990Z,1004.9
2018-01-19T11:22:25.386Z,1004.8
2018-01-19T11:23:27.923Z,1005.7
2018-01-19T11:24:29.691Z,1004.7
2018-01-19T11:25:31.382Z,1004.9
2018-01-19T11:26:33.085Z,1004.6
2018-01-19T11:27:35.918Z,1004.3
2018-01-19T11:28:37.951Z,1004.6
2018-01-19T11:29:39.659Z,1005.3
2018-01-19T11:30:41.427Z,1004.7
2018-01-19T11:31:43.091Z,1004.5
2018-01-19T11:32:44.788Z,1004.6
2018-01-19T11:33:46.802Z,1004.5
2018-01-19T11:34:49.026Z,1004.8
2018-01-19T11:35:51.226Z,1004.6
2018-01-19T11:36:52.928Z,1004.5
2018-01-19T11:37:55.018Z,1004.5
2018-01-19T11:38:57.075Z,1004.3
2018-01-19T11:39:58.819Z,1004.3
2018-01-19T11:41:00.814Z,1004.3
2018-01-19T11:42:02.996Z,1004.3
2018-01-19T11:43:05.533Z,1004.3
2018-01-19T11:44:07.571Z,1004.3
2018-01-19T11:45:09.795Z,1004.4
2018-01-19T11:46:11.845Z,1004.5
2018-01-19T11:47:13.913Z,1004.3
2018-01-19T11:48:15.895Z,1004.3
2018-01-19T11:49:17.933Z,1004.4
2018-01-19T11:50:19.690Z,1004.3
2018-01-19T11:51:21.795Z,1004.4
2018-01-19T11:52:23.593Z,1004.6
2018-01-19T11:53:25.674Z,1004.4
2018-01-19T11:54:27.664Z,1004.3
2018-01-19T11:55:29.704Z,1004.4
2018-01-19T11:56:31.770Z,1004.5
2018-01-19T11:57:33.969Z,1004.4
2018-01-19T11:58:36.033Z,1004.5
2018-01-19T11:59:38.212Z,1004.6
2018-01-19T12:00:40.273Z,1005.0
2018-01-19T12:01:42.037Z,1004.8
2018-01-19T12:02:44.158Z,1004.6
2018-01-19T12:03:46.163Z,1004.4
2018-01-19T12:04:48.278Z,1004.3
2018-01-19T12:05:50.389Z,1004.3
2018-01-19T12:06:52.560Z,1004.6
2018-01-19T12:07:54.255Z,1004.6
2018-01-19T12:08:56.028Z,1004.3
2018-01-19T12:09:57.680Z,1004.3
2018-01-19T12:10:59.384Z,1004.6
2018-01-19T12:12:01.083Z,1004.3
2018-01-19T12:13:03.239Z,1004.2
2018-01-19T12:14:05.262Z,1004.4
2018-01-19T12:15:07.407Z,1004.5
2018-01-19T12:16:09.376Z,1004.6
2018-01-19T12:17:11.419Z,1004.3
2018-01-19T12:18:13.128Z,1004.3
2018-01-19T12:19:15.297Z,1004.2
2018-01-19T12:20:17.282Z,1004.3
2018-01-19T12:21:19.077Z,1004.1
2018-01-19T12:22:20.804Z,1004.2
2018-01-19T12:23:22.738Z,1004.4
2018-01-19T12:24:24.818Z,1004.4
2018-01-19T12:25:27.046Z,1004.1
2018-01-19T12:26:29.156Z,1004.3
2018-01-19T12:27:31.319Z,1004.1
2018-01-19T12:28:32.998Z,1004.3
2018-01-19T12:29:34.748Z,1004.3
2018-01-19T12:30:36.450Z,1004.1
2018-01-19T12:31:38.842Z,1004.1
2018-01-19T12:32:41.043Z,1004.1
2018-01-19T12:33:43.063Z,1003.9
2018-01-19T12:34:45.070Z,1003.9
2018-01-19T12:35:47.141Z,1004.0
2018-01-19T12:36:49.225Z,1004.1
2018-01-19T12:37:51.149Z,1004.4
2018-01-19T12:38:53.224Z,1004.2
2018-01-19T12:39:55.267Z,1004.0
2018-01-19T12:40:57.377Z,1004.0
2018-01-19T12:41:59.407Z,1004.1
2018-01-19T12:43:01.710Z,1004.4
2018-01-19T12:44:03.737Z,1004.6
2018-01-19T12:45:05.810Z,1004.7
2018-01-19T12:46:07.842Z,1004.7
2018-01-19T12:47:09.910Z,1004.6
2018-01-19T12:48:11.952Z,1004.4
2018-01-19T12:49:13.741Z,1004.6
2018-01-19T12:50:15.797Z,1004.6
2018-01-19T12:51:17.989Z,1004.5
2018-01-19T12:52:20.261Z,1004.3
2018-01-19T12:53:22.277Z,1004.3
2018-01-19T12:54:24.387Z,1004.6
2018-01-19T12:55:26.636Z,1004.5
2018-01-19T12:56:29.556Z,1004.3
2018-01-19T12:57:31.717Z,1004.2
2018-01-19T12:58:33.536Z,1004.1
2018-01-19T12:59:35.235Z,1004.1
2018-01-19T13:00:36.843Z,1003.9
2018-01-19T13:01:38.470Z,1003.9
2018-01-19T13:02:40.118Z,1003.9